createdAt,value
2023-03-01T00:00:18.848Z,73.00
2023-03-01T00:02:18.860Z,73.00
2023-03-01T00:04:18.815Z,73.00
2023-03-01T00:06:18.830Z,73.00
2023-03-01T00:08:18.910Z,73.00
2023-03-01T00:10:18.827Z,73.00
2023-03-01T00:12:18.840Z,73.00
2023-03-01T00:14:18.838Z,73.00
2023-03-01T00:16:18.883Z,73.00
2023-03-01T00:18:18.827Z,72.00
2023-03-01T00:20:18.866Z,72.00
2023-03-01T00:22:18.822Z,72.00
2023-03-01T00:24:18.816Z,72.00
2023-03-01T00:26:18.968Z,72.00
2023-03-01T00:28:18.829Z,73.00
2023-03-01T00:30:18.827Z,73.00
2023-03-01T00:32:18.842Z,73.00
2023-03-01T00:34:18.824Z,73.00
2023-03-01T00:36:18.987Z,73.00
2023-03-01T00:38:18.855Z,73.00
2023-03-01T00:40:18.852Z,73.00
2023-03-01T00:42:18.878Z,73.00
2023-03-01T00:44:18.827Z,72.00
2023-03-01T00:46:18.931Z,72.00
2023-03-01T00:48:18.900Z,72.00
2023-03-01T00:50:48.853Z,72.00
2023-03-01T00:52:48.872Z,72.00
2023-03-01T00:54:48.920Z,72.00
2023-03-01T00:56:48.859Z,72.00
2023-03-01T00:58:48.979Z,72.00
2023-03-01T01:00:48.847Z,72.00
2023-03-01T01:02:48.862Z,72.00
2023-03-01T01:04:48.846Z,72.00
2023-03-01T01:06:48.923Z,72.00
2023-03-01T01:08:48.905Z,72.00
2023-03-01T01:10:48.870Z,72.00
2023-03-01T01:12:48.924Z,72.00
2023-03-01T01:14:48.889Z,72.00
2023-03-01T01:16:48.846Z,72.00
2023-03-01T01:18:48.921Z,72.00
2023-03-01T01:20:48.866Z,72.00
2023-03-01T01:22:48.920Z,72.00
2023-03-01T01:24:48.851Z,72.00
2023-03-01T01:26:48.910Z,72.00
2023-03-01T01:28:48.982Z,72.00
2023-03-01T01:30:48.966Z,72.00
2023-03-01T01:32:48.876Z,72.00
2023-03-01T01:34:48.911Z,72.00
2023-03-01T01:36:49.664Z,72.00
2023-03-01T01:38:48.943Z,72.00
2023-03-01T01:40:48.919Z,72.00
2023-03-01T01:42:48.992Z,72.00
2023-03-01T01:46:40.104Z,72.00
2023-03-01T01:48:40.062Z,72.00
2023-03-01T01:50:40.120Z,72.00
2023-03-01T01:52:40.055Z,72.00
2023-03-01T01:54:40.154Z,72.00
2023-03-01T01:56:40.172Z,72.00
2023-03-01T01:58:40.100Z,72.00
2023-03-01T02:00:40.118Z,72.00
2023-03-01T02:02:40.156Z,72.00
2023-03-01T02:05:10.050Z,72.00
2023-03-01T02:07:10.053Z,72.00
2023-03-01T02:09:10.082Z,72.00
2023-03-01T02:11:10.068Z,72.00
2023-03-01T02:13:10.073Z,72.00
2023-03-01T02:15:10.079Z,72.00
2023-03-01T02:17:10.057Z,72.00
2023-03-01T02:19:10.085Z,72.00
2023-03-01T02:21:10.095Z,72.00
2023-03-01T02:23:10.104Z,72.00
2023-03-01T02:25:10.078Z,72.00
2023-03-01T02:27:10.071Z,72.00
2023-03-01T02:29:10.093Z,72.00
2023-03-01T02:31:10.139Z,72.00
2023-03-01T02:33:10.071Z,72.00
2023-03-01T02:35:10.102Z,72.00
2023-03-01T02:37:10.074Z,72.00
2023-03-01T02:39:10.062Z,72.00
2023-03-01T02:41:10.099Z,72.00
2023-03-01T02:43:10.084Z,72.00
2023-03-01T02:45:10.094Z,72.00
2023-03-01T02:47:10.130Z,72.00
2023-03-01T02:49:10.101Z,72.00
2023-03-01T02:51:10.102Z,72.00
2023-03-01T02:53:10.108Z,72.00
2023-03-01T02:55:10.188Z,72.00
2023-03-01T02:57:11.226Z,72.00
2023-03-01T02:59:10.110Z,72.00
2023-03-01T03:01:10.178Z,72.00
2023-03-01T03:03:10.147Z,72.00
2023-03-01T03:05:10.099Z,72.00
2023-03-01T03:07:10.212Z,72.00
2023-03-01T03:09:10.105Z,72.00
2023-03-01T03:11:10.134Z,72.00
2023-03-01T03:13:10.165Z,72.00
2023-03-01T03:15:10.100Z,72.00
2023-03-01T03:17:10.112Z,72.00
2023-03-01T03:19:10.160Z,72.00
2023-03-01T03:21:10.088Z,72.00
2023-03-01T03:23:10.108Z,72.00
2023-03-01T03:25:10.100Z,72.00
2023-03-01T03:27:10.118Z,72.00
2023-03-01T03:29:10.102Z,72.00
2023-03-01T03:31:10.192Z,72.00
2023-03-01T03:33:12.997Z,72.00
2023-03-01T03:35:10.109Z,72.00
2023-03-01T03:37:10.151Z,72.00
2023-03-01T03:39:10.224Z,72.00
2023-03-01T03:41:10.103Z,72.00
2023-03-01T03:43:10.205Z,72.00
2023-03-01T03:45:10.106Z,72.00
2023-03-01T03:47:10.252Z,72.00
2023-03-01T03:49:40.103Z,72.00
2023-03-01T03:51:40.201Z,72.00
2023-03-01T03:53:40.135Z,72.00
2023-03-01T03:55:40.229Z,72.00
2023-03-01T03:57:40.158Z,72.00
2023-03-01T03:59:40.118Z,72.00
2023-03-01T04:01:40.189Z,72.00
2023-03-01T04:03:40.196Z,72.00
2023-03-01T04:05:40.110Z,72.00
2023-03-01T04:07:40.108Z,72.00
2023-03-01T04:09:40.134Z,72.00
2023-03-01T04:11:40.143Z,72.00
2023-03-01T04:13:40.124Z,72.00
2023-03-01T04:15:40.187Z,72.00
2023-03-01T04:17:40.142Z,72.00
2023-03-01T04:19:40.214Z,72.00
2023-03-01T04:21:40.118Z,72.00
2023-03-01T04:23:40.119Z,72.00
2023-03-01T04:25:40.243Z,72.00
2023-03-01T04:27:40.167Z,72.00
2023-03-01T04:29:40.428Z,72.00
2023-03-01T04:31:40.168Z,72.00
2023-03-01T04:33:40.221Z,72.00
2023-03-01T04:35:40.201Z,72.00
2023-03-01T04:37:41.240Z,72.00
2023-03-01T04:39:40.163Z,72.00
2023-03-01T04:41:40.277Z,72.00
2023-03-01T04:43:40.154Z,72.00
2023-03-01T04:45:40.192Z,72.00
2023-03-01T04:47:40.168Z,72.00
2023-03-01T04:49:40.206Z,72.00
2023-03-01T04:51:40.137Z,72.00
2023-03-01T04:53:40.242Z,72.00
2023-03-01T04:55:40.142Z,72.00
2023-03-01T04:57:40.134Z,72.00
2023-03-01T04:59:40.199Z,72.00
2023-03-01T05:01:40.149Z,72.00
2023-03-01T05:03:42.015Z,72.00
2023-03-01T05:05:40.272Z,72.00
2023-03-01T05:07:40.255Z,72.00
2023-03-01T05:09:40.281Z,72.00
2023-03-01T05:11:40.241Z,72.00
2023-03-01T05:13:40.711Z,72.00
2023-03-01T05:15:40.160Z,72.00
2023-03-01T05:17:40.164Z,72.00
2023-03-01T05:19:40.277Z,72.00
2023-03-01T05:21:40.259Z,72.00
2023-03-01T05:23:40.268Z,72.00
2023-03-01T05:25:40.172Z,72.00
2023-03-01T05:27:40.189Z,72.00
2023-03-01T05:29:40.200Z,72.00
2023-03-01T05:32:10.289Z,72.00
2023-03-01T05:34:10.287Z,72.00
2023-03-01T05:36:10.292Z,72.00
2023-03-01T05:38:10.316Z,72.00
2023-03-01T05:40:10.272Z,72.00
2023-03-01T05:42:10.522Z,72.00
2023-03-01T05:44:10.177Z,72.00
2023-03-01T05:46:10.229Z,72.00
2023-03-01T05:48:11.719Z,72.00
2023-03-01T05:50:10.195Z,72.00
2023-03-01T05:52:10.296Z,72.00
2023-03-01T05:54:10.172Z,72.00
2023-03-01T05:56:10.201Z,72.00
2023-03-01T05:58:11.366Z,72.00
2023-03-01T06:00:11.451Z,73.00
2023-03-01T06:02:10.383Z,73.00
2023-03-01T06:04:11.687Z,73.00
2023-03-01T06:06:10.189Z,73.00
2023-03-01T06:08:10.200Z,73.00
2023-03-01T06:10:10.227Z,73.00
2023-03-01T06:12:10.504Z,73.00
2023-03-01T06:14:10.192Z,73.00
2023-03-01T06:16:10.205Z,73.00
2023-03-01T06:18:10.205Z,73.00
2023-03-01T06:20:10.193Z,73.00
2023-03-01T06:22:12.229Z,73.00
2023-03-01T06:24:10.207Z,73.00
2023-03-01T06:26:10.235Z,73.00
2023-03-01T06:28:10.237Z,73.00
2023-03-01T06:30:10.183Z,73.00
2023-03-01T06:32:10.297Z,73.00
2023-03-01T06:34:10.213Z,74.00
2023-03-01T06:36:10.304Z,74.00
2023-03-01T06:38:10.228Z,74.00
2023-03-01T06:40:10.221Z,74.00
2023-03-01T06:42:10.209Z,74.00
2023-03-01T06:44:10.594Z,74.00
2023-03-01T06:46:10.240Z,74.00
2023-03-01T06:48:10.342Z,74.00
2023-03-01T06:50:10.270Z,74.00
2023-03-01T06:52:10.200Z,74.00
2023-03-01T06:54:10.205Z,74.00
2023-03-01T06:56:10.217Z,74.00
2023-03-01T06:58:10.221Z,74.00
2023-03-01T07:00:10.263Z,74.00
2023-03-01T07:02:11.441Z,74.00
2023-03-01T07:04:10.197Z,74.00
2023-03-01T07:06:10.196Z,74.00
2023-03-01T07:08:10.196Z,74.00
2023-03-01T07:10:10.289Z,74.00
2023-03-01T07:12:11.528Z,74.00
2023-03-01T07:14:10.226Z,73.00
2023-03-01T07:16:10.251Z,73.00
2023-03-01T07:18:40.284Z,73.00
2023-03-01T07:20:40.335Z,73.00
2023-03-01T07:22:40.209Z,73.00
2023-03-01T07:24:40.211Z,73.00
2023-03-01T07:26:40.227Z,73.00
2023-03-01T07:28:40.276Z,72.00
2023-03-01T07:30:40.229Z,72.00
2023-03-01T07:32:40.335Z,72.00
2023-03-01T07:34:40.224Z,72.00
2023-03-01T07:36:40.212Z,72.00
2023-03-01T07:38:40.231Z,72.00
2023-03-01T07:40:40.227Z,72.00
2023-03-01T07:42:40.235Z,72.00
2023-03-01T07:44:40.227Z,72.00
2023-03-01T07:46:40.229Z,72.00
2023-03-01T07:48:40.206Z,72.00
2023-03-01T07:50:40.207Z,72.00
2023-03-01T07:52:40.238Z,71.00
2023-03-01T07:54:40.208Z,71.00
2023-03-01T07:56:40.289Z,71.00
2023-03-01T07:58:40.237Z,71.00
2023-03-01T08:00:40.371Z,71.00
2023-03-01T08:02:40.204Z,70.00
2023-03-01T08:04:40.230Z,71.00
2023-03-01T08:06:40.223Z,70.00
2023-03-01T08:08:40.255Z,70.00
2023-03-01T08:10:40.233Z,70.00
2023-03-01T08:12:40.287Z,70.00
2023-03-01T08:14:40.279Z,70.00
2023-03-01T08:16:40.378Z,69.00
2023-03-01T08:18:40.242Z,69.00
2023-03-01T08:20:40.229Z,69.00
2023-03-01T08:22:40.292Z,69.00
2023-03-01T08:24:40.236Z,69.00
2023-03-01T08:26:40.306Z,69.00
2023-03-01T08:28:40.267Z,69.00
2023-03-01T08:30:40.417Z,69.00
2023-03-01T08:32:40.421Z,68.00
2023-03-01T08:34:40.974Z,67.00
2023-03-01T08:36:40.316Z,67.00
2023-03-01T08:38:40.289Z,67.00
2023-03-01T08:40:40.221Z,67.00
2023-03-01T08:44:40.338Z,66.00
2023-03-01T08:46:40.301Z,66.00
2023-03-01T08:48:40.501Z,66.00
2023-03-01T08:50:42.293Z,66.00
2023-03-01T08:55:03.205Z,65.00
2023-03-01T08:57:03.206Z,65.00
2023-03-01T08:59:03.232Z,65.00
2023-03-01T09:01:03.309Z,65.00
2023-03-01T09:03:03.197Z,65.00
2023-03-01T09:05:03.191Z,65.00
2023-03-01T09:07:03.303Z,65.00
2023-03-01T09:09:03.189Z,64.00
2023-03-01T09:11:03.196Z,64.00
2023-03-01T09:13:03.218Z,64.00
2023-03-01T09:15:03.190Z,64.00
2023-03-01T09:17:03.256Z,64.00
2023-03-01T09:19:03.193Z,64.00
2023-03-01T09:21:03.258Z,63.00
2023-03-01T09:23:03.223Z,63.00
2023-03-01T09:25:03.209Z,63.00
2023-03-01T09:27:03.195Z,63.00
2023-03-01T09:29:03.212Z,63.00
2023-03-01T09:31:03.265Z,63.00
2023-03-01T09:33:03.235Z,62.00
2023-03-01T09:35:03.228Z,62.00
2023-03-01T09:37:03.217Z,62.00
2023-03-01T09:39:03.223Z,62.00
2023-03-01T09:41:03.237Z,61.00
2023-03-01T09:43:03.205Z,61.00
2023-03-01T09:45:03.218Z,61.00
2023-03-01T09:47:03.303Z,61.00
2023-03-01T09:49:03.709Z,61.00
2023-03-01T09:51:03.313Z,61.00
2023-03-01T09:53:03.216Z,61.00
2023-03-01T09:55:03.220Z,60.00
2023-03-01T09:57:03.218Z,60.00
2023-03-01T09:59:03.243Z,60.00
2023-03-01T10:01:03.249Z,60.00
2023-03-01T10:03:03.239Z,60.00
2023-03-01T10:05:03.294Z,60.00
2023-03-01T10:07:03.252Z,60.00
2023-03-01T10:09:03.244Z,60.00
2023-03-01T10:11:03.298Z,60.00
2023-03-01T10:13:03.276Z,60.00
2023-03-01T10:15:03.260Z,60.00
2023-03-01T10:17:03.247Z,60.00
2023-03-01T10:19:03.333Z,60.00
2023-03-01T10:21:03.273Z,60.00
2023-03-01T10:23:03.248Z,60.00
2023-03-01T10:25:03.315Z,60.00
2023-03-01T10:27:33.261Z,60.00
2023-03-01T10:29:33.269Z,59.00
2023-03-01T10:31:33.895Z,59.00
2023-03-01T10:33:33.257Z,59.00
2023-03-01T10:35:33.300Z,59.00
2023-03-01T10:37:33.254Z,59.00
2023-03-01T10:39:35.030Z,59.00
2023-03-01T10:41:33.584Z,59.00
2023-03-01T10:43:33.287Z,59.00
2023-03-01T10:45:33.300Z,59.00
2023-03-01T10:47:33.395Z,59.00
2023-03-01T10:49:33.306Z,59.00
2023-03-01T10:51:33.351Z,59.00
2023-03-01T10:53:33.287Z,59.00
2023-03-01T10:55:33.274Z,59.00
2023-03-01T10:57:33.312Z,58.00
2023-03-01T10:59:33.285Z,58.00
2023-03-01T11:01:33.848Z,58.00
2023-03-01T11:03:33.297Z,58.00
2023-03-01T11:05:33.367Z,58.00
2023-03-01T11:07:33.299Z,58.00
2023-03-01T11:09:33.428Z,57.00
2023-03-01T11:11:33.495Z,57.00
2023-03-01T11:13:33.262Z,57.00
2023-03-01T11:15:33.360Z,57.00
2023-03-01T11:17:39.006Z,57.00
2023-03-01T11:19:33.284Z,57.00
2023-03-01T11:21:33.425Z,57.00
2023-03-01T11:23:33.294Z,56.00
2023-03-01T11:25:33.283Z,56.00
2023-03-01T11:27:33.296Z,56.00
2023-03-01T11:29:40.031Z,57.00
2023-03-01T11:31:33.646Z,57.00
2023-03-01T11:33:33.278Z,56.00
2023-03-01T11:35:33.280Z,56.00
2023-03-01T11:37:33.298Z,56.00
2023-03-01T11:39:33.405Z,56.00
2023-03-01T11:41:33.562Z,56.00
2023-03-01T11:43:33.311Z,56.00
2023-03-01T11:45:33.300Z,56.00
2023-03-01T11:47:33.548Z,56.00
2023-03-01T11:49:33.285Z,56.00
2023-03-01T11:51:33.442Z,56.00
2023-03-01T11:53:33.324Z,56.00
2023-03-01T11:55:33.291Z,56.00
2023-03-01T11:57:42.714Z,56.00
2023-03-01T11:59:33.294Z,56.00
2023-03-01T12:01:33.526Z,56.00
2023-03-01T12:03:33.316Z,56.00
2023-03-01T12:05:33.339Z,56.00
2023-03-01T12:07:33.291Z,56.00
2023-03-01T12:09:33.324Z,56.00
2023-03-01T12:11:33.328Z,56.00
2023-03-01T12:13:33.338Z,56.00
2023-03-01T12:15:33.322Z,55.00
2023-03-01T12:17:33.305Z,55.00
2023-03-01T12:20:03.308Z,55.00
2023-03-01T12:22:03.423Z,55.00
2023-03-01T12:24:03.555Z,55.00
2023-03-01T12:26:03.445Z,55.00
2023-03-01T12:28:03.324Z,55.00
2023-03-01T12:30:03.371Z,55.00
2023-03-01T12:32:03.502Z,55.00
2023-03-01T12:34:03.566Z,55.00
2023-03-01T12:36:03.455Z,56.00
2023-03-01T12:38:03.361Z,56.00
2023-03-01T12:40:03.399Z,56.00
2023-03-01T12:42:03.347Z,56.00
2023-03-01T12:44:03.354Z,55.00
2023-03-01T12:46:03.367Z,55.00
2023-03-01T12:48:03.339Z,56.00
2023-03-01T12:50:05.237Z,56.00
2023-03-01T12:52:03.433Z,56.00
2023-03-01T12:54:03.347Z,56.00
2023-03-01T12:56:03.453Z,56.00
2023-03-01T12:58:03.455Z,56.00
2023-03-01T13:00:03.404Z,57.00
2023-03-01T13:02:03.427Z,56.00
2023-03-01T13:04:03.552Z,56.00
2023-03-01T13:06:04.461Z,56.00
2023-03-01T13:08:03.341Z,56.00
2023-03-01T13:10:03.448Z,56.00
2023-03-01T13:12:08.084Z,56.00
2023-03-01T13:14:03.355Z,56.00
2023-03-01T13:16:03.389Z,56.00
2023-03-01T13:18:03.397Z,56.00
2023-03-01T13:20:04.411Z,56.00
2023-03-01T13:22:03.426Z,56.00
2023-03-01T13:24:03.386Z,56.00
2023-03-01T13:26:03.483Z,56.00
2023-03-01T13:28:04.378Z,56.00
2023-03-01T13:30:03.373Z,56.00
2023-03-01T13:32:03.633Z,56.00
2023-03-01T13:34:03.369Z,56.00
2023-03-01T13:36:03.461Z,55.00
2023-03-01T13:38:03.461Z,55.00
2023-03-01T13:40:03.472Z,55.00
2023-03-01T13:42:03.492Z,56.00
2023-03-01T13:44:03.368Z,56.00
2023-03-01T13:46:03.487Z,56.00
2023-03-01T13:48:03.450Z,56.00
2023-03-01T13:50:03.513Z,56.00
2023-03-01T13:52:03.463Z,56.00
2023-03-01T13:54:03.376Z,56.00
2023-03-01T13:56:03.490Z,56.00
2023-03-01T13:58:03.406Z,55.00
2023-03-01T14:00:03.506Z,56.00
2023-03-01T14:02:03.435Z,56.00
2023-03-01T14:04:03.547Z,56.00
2023-03-01T14:06:13.683Z,55.00
2023-03-01T14:08:03.571Z,55.00
2023-03-01T14:10:33.397Z,56.00
2023-03-01T14:12:33.413Z,55.00
2023-03-01T14:14:33.520Z,55.00
2023-03-01T14:16:33.729Z,55.00
2023-03-01T14:18:33.457Z,55.00
2023-03-01T14:20:33.468Z,55.00
2023-03-01T14:22:33.494Z,56.00
2023-03-01T14:24:33.433Z,56.00
2023-03-01T14:26:33.669Z,56.00
2023-03-01T14:28:33.474Z,55.00
2023-03-01T14:30:33.401Z,55.00
2023-03-01T14:32:33.518Z,55.00
2023-03-01T14:34:33.402Z,55.00
2023-03-01T14:36:33.493Z,55.00
2023-03-01T14:38:33.432Z,56.00
2023-03-01T14:40:33.404Z,56.00
2023-03-01T14:42:33.423Z,56.00
2023-03-01T14:44:33.413Z,56.00
2023-03-01T14:46:33.778Z,56.00
2023-03-01T14:48:33.500Z,56.00
2023-03-01T14:50:33.446Z,56.00
2023-03-01T14:52:33.497Z,56.00
2023-03-01T14:54:33.513Z,56.00
2023-03-01T14:56:33.730Z,56.00
2023-03-01T14:58:34.544Z,56.00
2023-03-01T15:00:33.565Z,56.00
2023-03-01T15:02:33.500Z,56.00
2023-03-01T15:04:33.471Z,56.00
2023-03-01T15:06:33.741Z,56.00
2023-03-01T15:08:33.515Z,56.00
2023-03-01T15:10:33.685Z,56.00
2023-03-01T15:12:33.434Z,56.00
2023-03-01T15:14:33.430Z,56.00
2023-03-01T15:16:34.677Z,56.00
2023-03-01T15:18:33.626Z,56.00
2023-03-01T15:20:34.533Z,56.00
2023-03-01T15:22:33.573Z,56.00
2023-03-01T15:24:33.552Z,57.00
2023-03-01T15:26:33.688Z,56.00
2023-03-01T15:28:33.544Z,57.00
2023-03-01T15:30:33.455Z,57.00
2023-03-01T15:32:33.569Z,56.00
2023-03-01T15:34:33.495Z,56.00
2023-03-01T15:36:33.683Z,56.00
2023-03-01T15:38:33.515Z,56.00
2023-03-01T15:40:33.616Z,56.00
2023-03-01T15:42:33.538Z,56.00
2023-03-01T15:44:42.660Z,56.00
2023-03-01T15:46:33.910Z,56.00
2023-03-01T15:48:33.464Z,56.00
2023-03-01T15:52:41.784Z,56.00
2023-03-01T15:54:41.789Z,56.00
2023-03-01T15:56:41.793Z,56.00
2023-03-01T15:58:41.813Z,56.00
2023-03-01T16:00:48.752Z,56.00
2023-03-01T16:02:42.006Z,56.00
2023-03-01T16:04:42.059Z,56.00
2023-03-01T16:06:41.852Z,56.00
2023-03-01T16:08:41.967Z,56.00
2023-03-01T16:10:41.893Z,56.00
2023-03-01T16:12:41.905Z,56.00
2023-03-01T16:14:41.885Z,56.00
2023-03-01T16:16:41.958Z,57.00
2023-03-01T16:18:41.938Z,57.00
2023-03-01T16:20:41.953Z,56.00
2023-03-01T16:22:41.848Z,56.00
2023-03-01T16:24:41.850Z,56.00
2023-03-01T16:26:42.005Z,56.00
2023-03-01T16:29:12.886Z,56.00
2023-03-01T16:31:11.924Z,56.00
2023-03-01T16:33:27.411Z,56.00
2023-03-01T16:35:11.947Z,57.00
2023-03-01T16:37:11.880Z,57.00
2023-03-01T16:39:12.005Z,57.00
2023-03-01T16:41:11.952Z,57.00
2023-03-01T16:43:11.921Z,57.00
2023-03-01T16:45:22.812Z,57.00
2023-03-01T16:47:11.996Z,57.00
2023-03-01T16:49:11.989Z,57.00
2023-03-01T16:51:11.845Z,58.00
2023-03-01T16:53:11.918Z,58.00
2023-03-01T16:55:11.866Z,59.00
2023-03-01T16:57:11.863Z,59.00
2023-03-01T16:59:11.892Z,59.00
2023-03-01T17:01:11.966Z,59.00
2023-03-01T17:03:12.032Z,59.00
2023-03-01T17:05:11.953Z,59.00
2023-03-01T17:07:11.961Z,59.00
2023-03-01T17:09:11.884Z,59.00
2023-03-01T17:11:11.885Z,59.00
2023-03-01T17:13:11.887Z,59.00
2023-03-01T17:15:11.920Z,59.00
2023-03-01T17:17:11.946Z,59.00
2023-03-01T17:19:11.946Z,59.00
2023-03-01T17:21:11.955Z,59.00
2023-03-01T17:23:12.005Z,60.00
2023-03-01T17:25:11.900Z,60.00
2023-03-01T17:27:11.880Z,60.00
2023-03-01T17:29:11.941Z,60.00
2023-03-01T17:31:11.915Z,60.00
2023-03-01T17:33:11.910Z,60.00
2023-03-01T17:35:11.844Z,60.00
2023-03-01T17:37:11.962Z,60.00
2023-03-01T17:39:11.877Z,60.00
2023-03-01T17:41:11.884Z,61.00
2023-03-01T17:43:11.913Z,61.00
2023-03-01T17:45:11.950Z,61.00
2023-03-01T17:47:11.937Z,61.00
2023-03-01T17:49:11.952Z,61.00
2023-03-01T17:51:11.884Z,61.00
2023-03-01T17:53:11.992Z,61.00
2023-03-01T17:55:11.925Z,61.00
2023-03-01T17:57:11.908Z,61.00
2023-03-01T17:59:11.897Z,61.00
2023-03-01T18:01:12.001Z,61.00
2023-03-01T18:03:12.965Z,61.00
2023-03-01T18:05:14.492Z,61.00
2023-03-01T18:07:12.018Z,61.00
2023-03-01T18:09:11.890Z,61.00
2023-03-01T18:11:11.946Z,61.00
2023-03-01T18:13:11.914Z,61.00
2023-03-01T18:15:13.888Z,61.00
2023-03-01T18:17:41.931Z,62.00
2023-03-01T18:19:41.955Z,62.00
2023-03-01T18:21:41.891Z,62.00
2023-03-01T18:23:41.986Z,62.00
2023-03-01T18:25:41.906Z,62.00
2023-03-01T18:27:41.934Z,63.00
2023-03-01T18:29:41.935Z,63.00
2023-03-01T18:31:42.080Z,63.00
2023-03-01T18:33:41.957Z,63.00
2023-03-01T18:35:42.037Z,63.00
2023-03-01T18:37:41.943Z,63.00
2023-03-01T18:39:41.912Z,63.00
2023-03-01T18:41:41.934Z,63.00
2023-03-01T18:43:41.953Z,63.00
2023-03-01T18:45:41.990Z,63.00
2023-03-01T18:47:41.991Z,63.00
2023-03-01T18:49:41.976Z,63.00
2023-03-01T18:51:41.971Z,63.00
2023-03-01T18:53:42.034Z,63.00
2023-03-01T18:55:41.920Z,63.00
2023-03-01T18:57:41.976Z,63.00
2023-03-01T18:59:41.992Z,63.00
2023-03-01T19:01:42.103Z,63.00
2023-03-01T19:03:41.992Z,63.00
2023-03-01T19:05:41.987Z,63.00
2023-03-01T19:07:41.971Z,63.00
2023-03-01T19:09:42.935Z,63.00
2023-03-01T19:11:41.916Z,63.00
2023-03-01T19:13:41.957Z,63.00
2023-03-01T19:15:41.973Z,63.00
2023-03-01T19:17:42.002Z,63.00
2023-03-01T19:19:42.003Z,63.00
2023-03-01T19:21:42.043Z,63.00
2023-03-01T19:23:42.088Z,63.00
2023-03-01T19:25:42.030Z,64.00
2023-03-01T19:27:41.967Z,64.00
2023-03-01T19:29:41.969Z,64.00
2023-03-01T19:31:41.993Z,64.00
2023-03-01T19:33:42.012Z,64.00
2023-03-01T19:35:42.047Z,64.00
2023-03-01T19:37:42.036Z,64.00
2023-03-01T19:39:41.990Z,64.00
2023-03-01T19:41:43.195Z,64.00
2023-03-01T19:43:41.932Z,64.00
2023-03-01T19:45:41.992Z,64.00
2023-03-01T19:47:42.031Z,64.00
2023-03-01T19:49:41.905Z,64.00
2023-03-01T19:51:41.930Z,64.00
2023-03-01T19:53:41.961Z,64.00
2023-03-01T19:55:41.957Z,64.00
2023-03-01T19:57:42.022Z,64.00
2023-03-01T19:59:41.994Z,64.00
2023-03-01T20:01:42.010Z,64.00
2023-03-01T20:03:41.966Z,65.00
2023-03-01T20:06:12.948Z,65.00
2023-03-01T20:08:12.036Z,65.00
2023-03-01T20:10:11.995Z,65.00
2023-03-01T20:12:11.945Z,65.00
2023-03-01T20:14:12.012Z,65.00
2023-03-01T20:16:12.052Z,65.00
2023-03-01T20:18:11.989Z,65.00
2023-03-01T20:20:12.093Z,65.00
2023-03-01T20:22:12.260Z,65.00
2023-03-01T20:24:11.942Z,65.00
2023-03-01T20:26:11.946Z,65.00
2023-03-01T20:28:11.985Z,65.00
2023-03-01T20:30:12.020Z,65.00
2023-03-01T20:32:12.041Z,65.00
2023-03-01T20:34:12.020Z,65.00
2023-03-01T20:36:12.052Z,66.00
2023-03-01T20:38:12.053Z,66.00
2023-03-01T20:40:11.966Z,66.00
2023-03-01T20:42:11.980Z,66.00
2023-03-01T20:44:11.993Z,66.00
2023-03-01T20:46:12.164Z,66.00
2023-03-01T20:48:11.941Z,66.00
2023-03-01T20:50:11.990Z,66.00
2023-03-01T20:52:11.951Z,66.00
2023-03-01T20:54:11.950Z,67.00
2023-03-01T20:56:12.008Z,67.00
2023-03-01T20:58:11.979Z,67.00
2023-03-01T21:00:12.019Z,67.00
2023-03-01T21:02:12.098Z,67.00
2023-03-01T21:04:12.128Z,67.00
2023-03-01T21:06:11.966Z,67.00
2023-03-01T21:08:11.945Z,67.00
2023-03-01T21:10:12.035Z,67.00
2023-03-01T21:12:12.019Z,67.00
2023-03-01T21:14:12.063Z,67.00
2023-03-01T21:16:12.067Z,67.00
2023-03-01T21:18:12.047Z,67.00
2023-03-01T21:20:12.068Z,67.00
2023-03-01T21:22:12.052Z,67.00
2023-03-01T21:24:12.155Z,67.00
2023-03-01T21:26:12.012Z,67.00
2023-03-01T21:28:12.073Z,68.00
2023-03-01T21:30:12.028Z,67.00
2023-03-01T21:32:12.172Z,68.00
2023-03-01T21:34:12.087Z,68.00
2023-03-01T21:36:12.073Z,68.00
2023-03-01T21:38:11.994Z,68.00
2023-03-01T21:40:11.995Z,68.00
2023-03-01T21:42:12.242Z,68.00
2023-03-01T21:44:12.018Z,68.00
2023-03-01T21:46:12.125Z,68.00
2023-03-01T21:48:12.193Z,68.00
2023-03-01T21:50:12.071Z,68.00
2023-03-01T21:52:42.023Z,68.00
2023-03-01T21:54:42.037Z,68.00
2023-03-01T21:56:42.029Z,69.00
2023-03-01T21:58:42.070Z,69.00
2023-03-01T22:00:42.117Z,69.00
2023-03-01T22:02:42.174Z,69.00
2023-03-01T22:04:42.084Z,69.00
2023-03-01T22:06:42.096Z,69.00
2023-03-01T22:08:42.027Z,69.00
2023-03-01T22:10:42.025Z,69.00
2023-03-01T22:12:42.022Z,69.00
2023-03-01T22:14:42.120Z,69.00
2023-03-01T22:16:42.253Z,69.00
2023-03-01T22:18:41.981Z,69.00
2023-03-01T22:20:42.082Z,69.00
2023-03-01T22:22:41.981Z,69.00
2023-03-01T22:24:42.031Z,69.00
2023-03-01T22:26:42.036Z,69.00
2023-03-01T22:28:44.132Z,69.00
2023-03-01T22:30:42.144Z,70.00
2023-03-01T22:32:42.125Z,70.00
2023-03-01T22:34:42.086Z,70.00
2023-03-01T22:36:42.118Z,70.00
2023-03-01T22:38:42.153Z,70.00
2023-03-01T22:40:42.043Z,70.00
2023-03-01T22:42:42.010Z,70.00
2023-03-01T22:44:42.132Z,70.00
2023-03-01T22:46:42.101Z,70.00
2023-03-01T22:48:42.560Z,70.00
2023-03-01T22:50:42.343Z,70.00
2023-03-01T22:52:42.044Z,70.00
2023-03-01T22:54:42.062Z,70.00
2023-03-01T22:56:42.130Z,70.00
2023-03-01T22:58:42.148Z,70.00
2023-03-01T23:00:42.165Z,70.00
2023-03-01T23:02:42.391Z,70.00
2023-03-01T23:04:52.987Z,70.00
2023-03-01T23:06:52.983Z,70.00
2023-03-01T23:08:53.000Z,70.00
2023-03-01T23:10:53.032Z,70.00
2023-03-01T23:12:53.029Z,70.00
2023-03-01T23:14:53.063Z,70.00
2023-03-01T23:16:53.103Z,70.00
2023-03-01T23:18:53.090Z,70.00
2023-03-01T23:20:52.966Z,70.00
2023-03-01T23:22:53.013Z,71.00
2023-03-01T23:24:53.004Z,71.00
2023-03-01T23:26:53.054Z,71.00
2023-03-01T23:28:52.971Z,71.00
2023-03-01T23:30:53.084Z,71.00
2023-03-01T23:32:52.966Z,71.00
2023-03-01T23:34:52.955Z,71.00
2023-03-01T23:36:52.991Z,71.00
2023-03-01T23:38:52.979Z,71.00
2023-03-01T23:40:52.996Z,71.00
2023-03-01T23:42:53.019Z,71.00
2023-03-01T23:44:53.000Z,72.00
2023-03-01T23:46:52.981Z,72.00
2023-03-01T23:48:52.953Z,72.00
2023-03-01T23:50:53.016Z,72.00
2023-03-01T23:52:52.973Z,72.00
2023-03-01T23:54:52.969Z,72.00
2023-03-01T23:56:53.061Z,72.00
2023-03-01T23:58:52.980Z,72.00
